Terminal Aerodrome Forecast
Issued by NWS

Home | Current Version | Previous Version | Text Only | Print | Product List | Glossary Off
Versions: 1 2 3 4 5 6 7 8 9 10 11 12 13 14 15 16 17 18 19

000
FTUS43 KICT 261446 AAA
TAFHUT
TAF AMD
KHUT 261446Z 2615/2712 21016G25KT P6SM BKN015
     FM261700 19018G25KT P6SM SCT015 BKN030
     FM261900 18019G27KT P6SM VCTS BKN030CB
     FM270500 21012KT P6SM SCT150=

USA.gov is the U.S. government's official web portal to all federal, state and local government web resources and services.